Time;durP1;ratioP1;P1;durP2;ratioP2;P2;SDS_P1;SDS_P2;PMS_P1;PMS_P2;Temp;Humidity;BMP_temperature;BMP_pressure;BME280_temperature;BME280_humidity;BME280_pressure;Samples;Min_cycle;Max_cycle;Signal;HPM_P1;HPM_P2
2021/06/17 00:01:25;;;;;;;31.50;17.50;;;;;;;21.28;48.18;98720.41;5117244;28;20031;-84
2021/06/17 00:03:50;;;;;;;31.38;18.15;;;;;;;21.26;48.25;98725.53;5116979;28;20012;-84
2021/06/17 00:06:16;;;;;;;36.75;18.55;;;;;;;21.21;48.35;98723.00;5099822;28;20100;-83
2021/06/17 00:08:41;;;;;;;32.25;18.85;;;;;;;21.16;48.58;98720.50;5117143;28;20029;-84
2021/06/17 00:11:07;;;;;;;32.65;19.08;;;;;;;21.10;48.53;98720.75;5116887;28;20019;-83
2021/06/17 00:13:36;;;;;;;32.00;18.40;;;;;;;21.07;48.68;98723.47;5117141;28;20035;-83
2021/06/17 00:16:04;;;;;;;35.72;19.25;;;;;;;21.02;48.70;98718.94;5116947;28;20020;-85
2021/06/17 00:18:30;;;;;;;30.42;18.20;;;;;;;20.98;48.89;98726.44;5118270;28;20004;-84
2021/06/17 00:20:56;;;;;;;31.77;18.63;;;;;;;20.97;48.74;98719.25;5101392;28;20028;-84
2021/06/17 00:23:22;;;;;;;30.33;17.50;;;;;;;20.96;49.02;98723.22;5073912;28;20480;-83
2021/06/17 00:25:47;;;;;;;34.25;19.40;;;;;;;20.96;49.01;98718.44;5092579;28;20491;-84
2021/06/17 00:28:13;;;;;;;33.22;18.60;;;;;;;20.94;48.93;98717.19;5092612;28;20089;-84
2021/06/17 00:30:39;;;;;;;32.92;17.15;;;;;;;20.94;49.07;98723.56;5073842;28;20023;-84
2021/06/17 00:33:05;;;;;;;28.42;16.50;;;;;;;20.94;49.40;98714.41;5092143;28;20056;-84
2021/06/17 00:35:31;;;;;;;27.80;16.77;;;;;;;20.94;49.12;98725.53;5089601;28;20149;-84
2021/06/17 00:38:00;;;;;;;28.15;17.10;;;;;;;20.95;49.15;98727.16;5091477;28;20502;-84
2021/06/17 00:40:26;;;;;;;27.05;16.67;;;;;;;20.93;49.16;98723.94;5091643;28;20046;-83
2021/06/17 00:42:52;;;;;;;28.85;18.00;;;;;;;20.89;49.28;98723.81;5091778;28;20039;-83
2021/06/17 00:45:25;;;;;;;28.35;16.75;;;;;;;20.87;49.36;98720.56;5090124;28;20024;-83
2021/06/17 00:47:51;;;;;;;30.95;17.23;;;;;;;20.83;49.19;98725.25;5091850;28;20034;-84
2021/06/17 00:50:16;;;;;;;32.35;19.00;;;;;;;20.81;49.39;98719.22;5094300;28;20024;-83
2021/06/17 00:52:44;;;;;;;31.27;19.55;;;;;;;20.79;49.10;98722.38;5092962;28;20036;-83
2021/06/17 00:55:10;;;;;;;35.00;21.95;;;;;;;20.77;49.32;98723.91;5095726;28;20072;-83
2021/06/17 00:57:37;;;;;;;37.10;25.08;;;;;;;20.75;49.42;98726.22;5093278;28;20532;-83
2021/06/17 01:00:08;;;;;;;42.22;26.77;;;;;;;20.72;49.54;98722.16;5093748;28;20376;-84
2021/06/17 01:02:33;;;;;;;36.00;21.67;;;;;;;20.72;49.55;98722.16;5093050;28;20036;-83
2021/06/17 01:04:58;;;;;;;40.13;22.23;;;;;;;20.71;49.47;98719.75;5093214;28;20032;-83
2021/06/17 01:07:56;;;;;;;36.05;23.42;;;;;;;20.67;49.26;98719.63;5092516;28;20080;-82
2021/06/17 01:10:32;;;;;;;36.03;20.17;;;;;;;20.60;49.49;98723.06;5057761;28;20357;-83
2021/06/17 01:13:14;;;;;;;34.10;21.60;;;;;;;20.57;49.57;98723.75;5090326;28;20028;-84
2021/06/17 01:15:47;;;;;;;30.88;20.50;;;;;;;20.53;49.75;98718.09;5091700;28;20051;-83
2021/06/17 01:18:16;;;;;;;33.63;19.50;;;;;;;20.51;49.81;98719.63;5091711;28;20020;-84
2021/06/17 01:20:43;;;;;;;35.28;20.63;;;;;;;20.47;50.17;98719.53;5091747;28;20024;-83
2021/06/17 01:23:38;;;;;;;31.02;18.85;;;;;;;20.42;49.91;98711.44;5091999;28;20028;-83
2021/06/17 01:26:26;;;;;;;34.63;20.38;;;;;;;20.46;49.91;98708.72;5091703;28;20035;-84
2021/06/17 01:28:54;;;;;;;34.03;20.30;;;;;;;20.44;50.00;98708.28;5088911;28;20040;-83
2021/06/17 01:31:24;;;;;;;34.53;20.52;;;;;;;20.44;50.30;98716.63;5073266;28;20020;-83
2021/06/17 01:33:50;;;;;;;;;;;;;;;20.40;49.99;98710.97;5092144;28;20108;-85
2021/06/17 01:36:38;;;;;;;31.10;20.45;;;;;;;20.33;50.03;98708.81;5093011;28;19931;-84
2021/06/17 01:39:06;;;;;;;34.92;19.73;;;;;;;20.28;50.23;98709.06;5092530;28;20044;-85
2021/06/17 01:41:36;;;;;;;39.13;22.05;;;;;;;20.24;50.33;98705.38;5090044;28;20476;-85
2021/06/17 01:44:05;;;;;;;35.72;21.17;;;;;;;20.19;50.46;98714.75;5093425;28;20088;-86
2021/06/17 01:46:32;;;;;;;36.75;22.25;;;;;;;20.18;50.60;98712.34;5074079;28;20020;-85
2021/06/17 01:48:59;;;;;;;41.28;23.08;;;;;;;20.18;50.56;98709.56;5092092;28;20016;-85
2021/06/17 01:51:26;;;;;;;34.45;20.23;;;;;;;20.14;50.59;98712.25;5090909;28;20046;-85
2021/06/17 01:53:52;;;;;;;37.75;22.80;;;;;;;20.09;50.39;98712.50;5091796;28;20040;-84
2021/06/17 01:56:20;;;;;;;35.67;21.10;;;;;;;20.09;50.75;98709.72;5089133;28;20016;-84
2021/06/17 01:58:47;;;;;;;39.42;21.48;;;;;;;20.05;50.73;98706.03;5090136;28;20027;-83
2021/06/17 02:01:15;;;;;;;37.88;22.77;;;;;;;19.98;50.68;98700.25;5072964;28;20023;-85
2021/06/17 02:03:43;;;;;;;40.28;24.08;;;;;;;19.96;50.94;98708.13;5091063;28;20032;-86
2021/06/17 02:06:09;;;;;;;43.25;24.65;;;;;;;19.97;51.11;98701.41;5090887;28;20080;-84
2021/06/17 02:08:35;;;;;;;44.50;26.63;;;;;;;19.98;50.93;98709.41;5091856;28;20023;-85
2021/06/17 02:11:01;;;;;;;46.40;24.83;;;;;;;19.98;51.30;98703.81;5091170;28;20043;-85
2021/06/17 02:13:27;;;;;;;34.30;21.67;;;;;;;19.96;51.11;98705.34;5090345;28;20057;-85
2021/06/17 02:15:53;;;;;;;41.00;24.33;;;;;;;19.90;51.21;98708.38;5091116;28;20043;-86
2021/06/17 02:18:25;;;;;;;32.60;21.13;;;;;;;19.84;50.89;98703.41;5091962;28;20034;-85
2021/06/17 02:20:51;;;;;;;31.05;19.67;;;;;;;19.74;51.09;98699.16;5090748;28;20030;-86
2021/06/17 02:23:18;;;;;;;35.15;21.23;;;;;;;19.64;51.01;98698.47;5090939;28;20091;-85
2021/06/17 02:25:47;;;;;;;37.05;22.70;;;;;;;19.60;51.31;98689.19;5072343;28;20571;-85
2021/06/17 02:28:18;;;;;;;36.80;22.08;;;;;;;19.59;51.22;98700.66;5090707;28;20480;-86
2021/06/17 02:30:45;;;;;;;35.22;22.83;;;;;;;19.57;51.43;98697.41;5089921;28;21058;-84
2021/06/17 02:33:13;;;;;;;37.13;22.80;;;;;;;19.56;51.40;98698.59;5090824;28;20032;-84
2021/06/17 02:35:43;;;;;;;38.45;22.05;;;;;;;19.55;51.33;98702.56;5090741;28;20028;-84
2021/06/17 02:38:09;;;;;;;40.75;25.20;;;;;;;19.51;51.46;98698.84;5092503;28;20016;-85
2021/06/17 02:40:41;;;;;;;39.67;23.75;;;;;;;19.50;51.50;98703.59;5090438;28;20116;-84
2021/06/17 02:43:13;;;;;;;44.85;25.20;;;;;;;19.48;51.57;98697.56;5090934;28;20024;-85
2021/06/17 02:45:39;;;;;;;47.00;24.83;;;;;;;19.49;51.93;98701.97;5090652;28;21016;-85
2021/06/17 02:48:06;;;;;;;39.15;24.00;;;;;;;19.46;51.88;98702.66;5089674;28;20030;-84
2021/06/17 02:50:32;;;;;;;40.58;24.70;;;;;;;19.46;51.83;98699.88;5090183;28;20066;-85
2021/06/17 02:52:57;;;;;;;46.10;25.60;;;;;;;19.42;51.77;98701.72;5091522;28;20040;-85
2021/06/17 02:55:23;;;;;;;43.40;26.88;;;;;;;19.39;52.02;98697.69;5090663;28;20031;-85
2021/06/17 02:58:26;;;;;;;47.95;26.88;;;;;;;19.38;51.84;98703.59;5072194;28;20024;-85
2021/06/17 03:01:21;;;;;;;39.00;24.25;;;;;;;19.34;52.07;98703.50;5089820;28;20027;-84
2021/06/17 03:03:51;;;;;;;43.38;23.92;;;;;;;19.31;52.17;98702.22;5063346;28;20055;-85
2021/06/17 03:06:25;;;;;;;40.75;23.35;;;;;;;19.31;52.23;98701.41;5091185;28;20039;-84
2021/06/17 03:09:01;;;;;;;37.42;21.25;;;;;;;19.29;52.29;98704.56;5090193;28;20468;-85
2021/06/17 03:11:31;;;;;;;33.97;19.55;;;;;;;19.26;52.20;98702.47;5089133;28;20066;-84
2021/06/17 03:14:01;;;;;;;35.67;21.67;;;;;;;19.25;52.59;98702.78;5089996;28;20095;-84
2021/06/17 03:16:29;;;;;;;37.85;22.30;;;;;;;19.27;52.66;98698.53;5091125;28;20020;-84
2021/06/17 03:19:00;;;;;;;40.83;23.48;;;;;;;19.29;52.64;98693.44;5090108;28;20020;-84
2021/06/17 03:21:32;;;;;;;37.30;22.25;;;;;;;19.30;52.74;98695.03;5085605;28;20039;-84
2021/06/17 03:23:58;;;;;;;41.50;23.42;;;;;;;19.32;52.89;98700.25;5086124;28;20035;-84
2021/06/17 03:26:25;;;;;;;38.70;22.95;;;;;;;19.34;52.96;98700.72;5088198;28;20043;-84
2021/06/17 03:28:54;;;;;;;39.42;22.95;;;;;;;19.35;53.19;98696.78;5089332;28;20085;-84
2021/06/17 03:31:20;;;;;;;37.25;23.70;;;;;;;19.34;53.02;98698.75;5089433;28;20111;-84
2021/06/17 03:33:50;;;;;;;39.08;22.85;;;;;;;19.36;53.15;98701.16;5088246;28;20039;-85
2021/06/17 03:36:16;;;;;;;39.08;21.90;;;;;;;19.38;53.43;98698.03;5088601;28;20269;-84
2021/06/17 03:38:43;;;;;;;43.10;23.65;;;;;;;19.38;53.44;98704.41;5089431;28;20032;-82
2021/06/17 03:41:12;;;;;;;38.38;23.98;;;;;;;19.38;53.31;98709.16;5089035;28;20052;-82
2021/06/17 03:43:39;;;;;;;41.25;22.63;;;;;;;19.38;53.51;98704.41;5089553;28;20025;-82
2021/06/17 03:46:05;;;;;;;39.13;23.40;;;;;;;19.42;53.80;98710.91;5091300;28;20028;-82
2021/06/17 03:48:32;;;;;;;36.92;22.25;;;;;;;19.46;53.87;98708.22;5089592;28;20056;-82
2021/06/17 03:50:59;;;;;;;41.17;22.65;;;;;;;19.49;53.88;98700.00;5088884;28;20028;-82
2021/06/17 03:53:26;;;;;;;38.30;21.73;;;;;;;19.55;53.96;98699.78;5089600;28;20020;-82
2021/06/17 03:55:53;;;;;;;40.00;23.75;;;;;;;19.56;54.10;98696.63;5089195;28;20036;-81
2021/06/17 03:58:23;;;;;;;42.28;24.25;;;;;;;19.60;53.96;98699.50;5089391;28;20074;-82
2021/06/17 04:00:48;;;;;;;;;;;;;;;19.62;53.70;98705.53;5089131;28;20036;-81
2021/06/17 04:03:14;;;;;;;41.42;23.15;;;;;;;19.62;53.96;98702.75;5089383;28;20669;-82
2021/06/17 04:05:40;;;;;;;41.42;24.27;;;;;;;19.64;54.10;98711.56;5089039;28;20036;-81
2021/06/17 04:08:10;;;;;;;42.65;23.45;;;;;;;19.66;54.19;98705.66;5089183;28;20069;-83
2021/06/17 04:10:36;;;;;;;37.85;22.65;;;;;;;19.70;54.54;98707.38;5088911;28;20048;-85
2021/06/17 04:13:03;;;;;;;40.03;25.42;;;;;;;19.76;54.36;98707.94;5090501;28;20369;-82
2021/06/17 04:15:31;;;;;;;42.05;24.42;;;;;;;19.79;54.90;98710.84;5087430;28;20071;-82
2021/06/17 04:18:00;;;;;;;43.60;24.10;;;;;;;19.86;54.53;98712.22;5070743;28;20024;-82
2021/06/17 04:20:43;;;;;;;39.22;23.85;;;;;;;19.89;54.59;98709.56;5070973;28;20031;-82
2021/06/17 04:23:11;;;;;;;34.70;22.98;;;;;;;19.95;54.79;98707.34;5090896;28;20028;-80
2021/06/17 04:25:40;;;;;;;50.33;25.45;;;;;;;20.02;54.73;98715.09;5087938;28;20587;-81
2021/06/17 04:28:06;;;;;;;47.60;24.95;;;;;;;20.06;55.04;98711.22;5089730;28;20016;-76
2021/06/17 04:30:33;;;;;;;38.22;22.63;;;;;;;20.13;54.90;98712.59;5089610;28;20467;-76
2021/06/17 04:33:01;;;;;;;44.60;24.40;;;;;;;20.17;55.11;98708.78;5094264;28;20024;-75
2021/06/17 04:35:29;;;;;;;42.22;24.90;;;;;;;20.22;54.96;98716.84;5094035;28;20028;-77
2021/06/17 04:37:54;;;;;;;41.53;22.17;;;;;;;20.29;55.03;98710.69;5075406;28;20052;-77
2021/06/17 04:40:21;;;;;;;39.78;22.58;;;;;;;20.33;54.96;98717.16;5094781;28;20468;-77
2021/06/17 04:42:53;;;;;;;38.13;22.02;;;;;;;20.38;55.00;98714.09;5093790;28;20028;-77
2021/06/17 04:45:22;;;;;;;43.03;23.90;;;;;;;20.45;54.96;98721.03;5093908;28;20028;-78
2021/06/17 04:47:49;;;;;;;39.70;22.45;;;;;;;20.45;54.94;98721.84;5093962;28;20039;-77
2021/06/17 04:50:16;;;;;;;38.42;21.38;;;;;;;20.48;54.92;98726.72;5075401;28;20034;-77
2021/06/17 04:52:50;;;;;;;40.65;22.80;;;;;;;20.51;55.11;98726.00;5093921;28;20056;-77
2021/06/17 04:55:16;;;;;;;38.13;21.65;;;;;;;20.56;55.11;98724.13;5093808;28;20046;-78
2021/06/17 04:57:41;;;;;;;34.88;21.42;;;;;;;20.58;55.25;98719.81;5093259;28;20039;-76
2021/06/17 05:00:07;;;;;;;38.28;21.48;;;;;;;20.60;55.12;98722.22;5094113;28;20396;-77
2021/06/17 05:02:33;;;;;;;37.13;20.48;;;;;;;20.62;55.33;98723.50;5096241;28;20077;-77
2021/06/17 05:04:58;;;;;;;34.80;20.58;;;;;;;20.66;55.30;98720.81;5094117;28;20031;-77
2021/06/17 05:07:39;;;;;;;37.42;20.85;;;;;;;20.70;55.25;98723.69;5093601;28;20032;-77
2021/06/17 05:12:51;;;;;;;38.58;21.90;;;;;;;20.81;55.41;98731.19;5092806;28;20115;-76
2021/06/17 05:15:17;;;;;;;35.50;21.60;;;;;;;20.88;55.26;98721.41;5093415;28;20099;-77
2021/06/17 05:17:42;;;;;;;37.85;21.33;;;;;;;20.93;55.52;98723.94;5092756;28;20046;-78
2021/06/17 05:20:09;;;;;;;35.05;20.85;;;;;;;20.98;55.25;98726.44;5095295;28;20384;-77
2021/06/17 05:22:35;;;;;;;33.85;20.17;;;;;;;21.02;55.29;98724.53;5097237;28;20034;-77
2021/06/17 05:25:01;;;;;;;37.45;20.70;;;;;;;21.06;55.26;98727.44;5094413;28;20475;-78
2021/06/17 05:27:26;;;;;;;39.35;21.45;;;;;;;21.12;55.23;98726.00;5093298;28;20036;-77
2021/06/17 05:29:52;;;;;;;38.33;22.10;;;;;;;21.20;55.12;98733.34;5092849;28;20055;-76
2021/06/17 05:32:18;;;;;;;34.63;21.30;;;;;;;21.25;54.96;98740.63;5093246;28;20106;-77
2021/06/17 05:34:45;;;;;;;34.90;20.83;;;;;;;21.31;55.28;98738.38;5074863;28;20435;-77
2021/06/17 05:37:10;;;;;;;36.90;22.15;;;;;;;21.36;55.19;98750.09;5092432;28;20034;-76
2021/06/17 05:39:36;;;;;;;36.13;22.27;;;;;;;21.39;55.10;98746.56;5093730;28;20437;-75
2021/06/17 05:42:02;;;;;;;38.53;21.77;;;;;;;21.48;55.15;98751.13;5093353;28;20028;-75
2021/06/17 05:44:27;;;;;;;31.17;20.90;;;;;;;21.54;55.12;98736.56;5091894;28;20117;-76
2021/06/17 05:46:52;;;;;;;38.55;22.40;;;;;;;21.59;55.07;98746.63;5095346;28;20016;-77
2021/06/17 05:49:23;;;;;;;34.92;20.92;;;;;;;21.65;55.14;98736.81;5092715;28;20048;-76
2021/06/17 05:51:48;;;;;;;35.60;21.08;;;;;;;21.74;55.01;98746.97;5092398;28;20048;-77
2021/06/17 05:54:13;;;;;;;32.50;19.27;;;;;;;21.79;55.04;98741.13;5074505;28;20135;-76
2021/06/17 05:56:39;;;;;;;37.65;21.10;;;;;;;21.85;54.72;98753.59;5092023;28;20121;-76
2021/06/17 05:59:04;;;;;;;35.15;20.65;;;;;;;21.91;54.99;98749.34;5089821;28;20029;-76
2021/06/17 06:01:29;;;;;;;35.45;20.20;;;;;;;21.96;54.88;98743.47;5090934;28;20028;-77
2021/06/17 06:03:55;;;;;;;38.42;22.80;;;;;;;22.00;54.50;98749.94;5096607;28;20055;-76
2021/06/17 06:06:20;;;;;;;38.67;22.08;;;;;;;22.05;54.71;98753.63;5092149;28;20082;-77
2021/06/17 06:08:46;;;;;;;34.67;19.73;;;;;;;22.11;54.58;98760.53;5092386;28;20119;-76
2021/06/17 06:11:12;;;;;;;35.35;20.65;;;;;;;22.17;54.74;98761.88;5091817;28;20409;-75
2021/06/17 06:13:37;;;;;;;42.70;21.30;;;;;;;22.22;54.73;98764.34;5092175;28;20024;-75
2021/06/17 06:16:03;;;;;;;41.13;20.20;;;;;;;22.26;54.51;98759.66;5093955;28;20027;-76
2021/06/17 06:18:30;;;;;;;32.10;19.30;;;;;;;22.31;54.55;98767.75;5089901;28;20391;-76
2021/06/17 06:20:57;;;;;;;37.85;20.77;;;;;;;22.38;54.48;98761.50;5090704;28;20460;-78
2021/06/17 06:23:24;;;;;;;35.40;19.83;;;;;;;22.44;54.70;98764.84;5091147;28;20024;-76
2021/06/17 06:25:50;;;;;;;38.30;19.63;;;;;;;22.51;54.74;98762.19;5073961;28;20024;-77
2021/06/17 06:28:18;;;;;;;34.58;19.27;;;;;;;22.58;54.57;98765.13;5090667;28;20020;-77
2021/06/17 06:30:43;;;;;;;29.45;17.42;;;;;;;22.66;54.48;98762.44;5090780;28;20036;-74
2021/06/17 06:33:09;;;;;;;30.10;19.15;;;;;;;22.71;54.39;98760.16;5092989;28;20032;-75
2021/06/17 06:35:34;;;;;;;32.30;18.02;;;;;;;22.79;54.35;98761.09;5090253;28;20073;-76
2021/06/17 06:38:01;;;;;;;36.92;20.25;;;;;;;22.85;54.27;98768.00;5073647;28;20032;-76
2021/06/17 06:40:27;;;;;;;34.67;19.60;;;;;;;22.92;54.35;98763.72;5093751;28;20157;-76
2021/06/17 06:42:54;;;;;;;34.03;18.23;;;;;;;23.00;54.29;98768.28;5090911;28;20098;-75
2021/06/17 06:45:20;;;;;;;29.35;17.60;;;;;;;23.08;54.35;98767.19;5090700;28;20028;-75
2021/06/17 06:47:45;;;;;;;30.67;18.92;;;;;;;23.16;54.38;98777.31;5094024;28;20541;-76
2021/06/17 06:50:11;;;;;;;29.30;17.90;;;;;;;23.25;54.18;98773.50;5090438;28;20059;-75
2021/06/17 06:52:37;;;;;;;33.13;18.40;;;;;;;23.30;54.18;98779.59;5089836;28;20408;-75
2021/06/17 06:55:05;;;;;;;28.50;17.85;;;;;;;23.39;54.03;98779.34;5091707;28;20035;-73
2021/06/17 06:57:30;;;;;;;29.15;17.63;;;;;;;23.48;53.90;98774.28;5090256;28;20360;-79
2021/06/17 06:59:56;;;;;;;27.00;16.55;;;;;;;23.57;53.98;98773.19;5091007;28;20504;-74
2021/06/17 07:02:21;;;;;;;30.55;18.73;;;;;;;23.62;53.78;98776.50;5073028;28;20034;-74
2021/06/17 07:04:47;;;;;;;27.15;15.98;;;;;;;23.69;53.93;98773.00;5091460;28;20024;-78
2021/06/17 07:07:13;;;;;;;28.83;16.60;;;;;;;23.77;53.74;98782.31;5055753;28;20054;-75
2021/06/17 07:09:38;;;;;;;25.48;15.90;;;;;;;23.82;53.65;98772.78;5090783;28;20123;-74
2021/06/17 07:12:04;;;;;;;21.75;14.70;;;;;;;23.89;53.64;98784.06;5090896;28;20093;-76
2021/06/17 07:14:30;;;;;;;25.13;15.70;;;;;;;23.94;53.41;98781.75;5090868;28;20016;-75
2021/06/17 07:16:56;;;;;;;27.25;14.85;;;;;;;24.03;53.24;98773.09;5087922;28;20039;-76
2021/06/17 07:19:21;;;;;;;29.35;16.73;;;;;;;24.12;53.14;98781.22;5090632;28;20555;-73
2021/06/17 07:21:47;;;;;;;24.92;15.07;;;;;;;24.20;53.19;98770.94;5088575;28;20035;-74
2021/06/17 07:24:12;;;;;;;30.95;16.05;;;;;;;24.28;53.14;98775.41;5089765;28;20063;-74
2021/06/17 07:26:38;;;;;;;38.35;15.18;;;;;;;24.35;53.14;98769.91;5088983;28;20111;-75
2021/06/17 07:29:04;;;;;;;23.88;13.55;;;;;;;24.43;52.88;98776.41;5071581;28;20460;-73
2021/06/17 07:31:29;;;;;;;22.23;13.63;;;;;;;24.50;52.63;98784.88;5094036;28;20027;-74
2021/06/17 07:33:55;;;;;;;16.67;12.02;;;;;;;24.56;52.95;98788.19;5090073;28;20032;-73
2021/06/17 07:36:20;;;;;;;22.92;12.65;;;;;;;24.64;52.68;98787.06;5090283;28;20065;-73
2021/06/17 07:38:46;;;;;;;24.10;15.45;;;;;;;24.73;51.96;98788.78;5091272;28;20032;-74
2021/06/17 07:41:11;;;;;;;18.17;12.88;;;;;;;24.79;52.10;98784.44;5086519;28;20476;-72
2021/06/17 07:43:37;;;;;;;22.52;14.20;;;;;;;24.86;52.01;98787.31;5088785;28;20107;-73
2021/06/17 07:46:04;;;;;;;17.65;11.05;;;;;;;24.95;52.20;98785.00;5069934;28;20032;-73
2021/06/17 07:48:31;;;;;;;16.52;10.98;;;;;;;25.02;51.50;98781.47;5088052;28;20491;-73
2021/06/17 07:50:56;;;;;;;18.77;11.27;;;;;;;25.11;51.60;98795.16;5089139;28;20176;-73
2021/06/17 07:53:21;;;;;;;18.92;12.00;;;;;;;25.18;51.63;98800.84;5087304;28;20868;-75
2021/06/17 07:55:47;;;;;;;17.98;11.73;;;;;;;25.25;51.75;98803.72;5087793;28;20026;-75
2021/06/17 07:58:13;;;;;;;32.10;13.30;;;;;;;25.32;51.21;98802.97;5089227;28;20446;-74
2021/06/17 08:00:39;;;;;;;16.67;10.82;;;;;;;25.44;50.94;98815.97;5090446;28;20028;-74
2021/06/17 08:03:04;;;;;;;17.17;10.30;;;;;;;25.52;51.12;98811.19;5087044;28;20073;-72
2021/06/17 08:05:30;;;;;;;16.77;10.90;;;;;;;25.58;50.67;98811.63;5089035;28;20451;-74
2021/06/17 08:07:55;;;;;;;17.02;10.80;;;;;;;25.63;50.68;98812.09;5091702;28;20107;-73
2021/06/17 08:10:21;;;;;;;17.60;12.43;;;;;;;25.65;50.03;98814.50;5092389;28;20042;-73
2021/06/17 08:12:46;;;;;;;16.75;11.65;;;;;;;25.71;50.24;98810.13;5092762;28;20025;-72
2021/06/17 08:15:12;;;;;;;17.77;11.20;;;;;;;25.80;50.27;98818.22;5088198;28;20575;-74
2021/06/17 08:17:37;;;;;;;19.75;10.73;;;;;;;25.91;49.79;98823.91;5090069;28;20039;-75
2021/06/17 08:20:04;;;;;;;13.55;9.20;;;;;;;25.97;49.58;98825.16;5090539;28;20056;-76
2021/06/17 08:22:29;;;;;;;14.10;8.95;;;;;;;26.01;49.22;98834.41;5089854;28;20031;-78
2021/06/17 08:24:55;;;;;;;16.55;10.70;;;;;;;26.08;48.81;98820.41;5092986;28;20040;-74
2021/06/17 08:27:21;;;;;;;13.57;8.18;;;;;;;26.19;48.71;98826.09;5091910;28;20024;-74
2021/06/17 08:29:47;;;;;;;12.20;7.68;;;;;;;26.22;48.34;98822.50;5090870;28;20027;-72
2021/06/17 08:32:13;;;;;;;12.85;8.07;;;;;;;26.24;47.99;98813.72;5092167;28;20095;-73
2021/06/17 08:34:38;;;;;;;12.80;7.60;;;;;;;26.26;47.42;98822.56;5091206;28;20028;-75
2021/06/17 08:37:05;;;;;;;9.98;7.28;;;;;;;26.30;47.12;98832.59;5093026;28;20168;-75
2021/06/17 08:39:31;;;;;;;10.70;6.72;;;;;;;26.33;46.78;98825.38;5091799;28;20111;-74
2021/06/17 08:41:57;;;;;;;11.98;6.57;;;;;;;26.36;46.29;98821.00;5091347;28;20127;-73
2021/06/17 08:44:23;;;;;;;11.55;7.57;;;;;;;26.38;46.25;98815.78;5092581;28;20107;-75
2021/06/17 08:46:48;;;;;;;11.05;7.07;;;;;;;26.41;45.75;98820.63;5090396;28;20028;-74
2021/06/17 08:49:15;;;;;;;14.43;7.70;;;;;;;26.43;45.59;98819.00;5072113;28;20358;-75
2021/06/17 08:51:42;;;;;;;11.88;6.75;;;;;;;26.49;45.33;98819.44;5090366;28;20480;-77
2021/06/17 08:54:08;;;;;;;11.30;6.90;;;;;;;26.55;45.19;98825.47;5091008;28;20023;-77
2021/06/17 08:56:35;;;;;;;9.82;6.93;;;;;;;26.59;45.08;98824.28;5092421;28;20028;-77
2021/06/17 08:59:00;;;;;;;10.38;7.05;;;;;;;26.63;45.02;98827.13;5096170;28;20114;-76
2021/06/17 09:01:25;;;;;;;12.43;7.30;;;;;;;26.69;44.83;98819.09;5090342;28;20115;-76
2021/06/17 09:03:52;;;;;;;10.38;7.65;;;;;;;26.72;44.78;98823.94;5088808;28;20476;-76
2021/06/17 09:06:18;;;;;;;14.85;7.82;;;;;;;26.80;44.83;98821.94;5090225;28;20024;-75
2021/06/17 09:09:00;;;;;;;10.05;7.70;;;;;;;26.86;44.88;98821.19;5072257;28;20040;-77
2021/06/17 09:11:27;;;;;;;9.88;7.15;;;;;;;26.95;44.42;98814.38;5089761;28;20032;-76
2021/06/17 09:14:13;;;;;;;13.00;8.43;;;;;;;27.03;44.34;98821.63;5106537;28;20047;-75
2021/06/17 09:16:38;;;;;;;13.57;8.55;;;;;;;27.06;44.27;98815.19;5088704;28;20028;-73
2021/06/17 09:19:04;;;;;;;11.90;8.75;;;;;;;27.13;44.43;98818.03;5089154;28;20111;-73
2021/06/17 09:21:29;;;;;;;9.73;8.32;;;;;;;27.17;44.04;98818.84;5090649;28;20115;-72
2021/06/17 09:23:54;;;;;;;12.52;8.88;;;;;;;27.23;43.89;98807.97;5090919;28;20054;-73
2021/06/17 09:26:23;;;;;;;12.98;8.88;;;;;;;27.27;43.80;98803.16;5071739;28;20028;-72
2021/06/17 09:29:10;;;;;;;11.82;8.70;;;;;;;27.32;43.69;98797.13;5090228;28;20465;-73
2021/06/17 09:31:41;;;;;;;13.55;9.07;;;;;;;27.40;43.79;98802.78;5090505;28;20028;-71
2021/06/17 09:34:07;;;;;;;13.57;8.70;;;;;;;27.46;43.40;98801.16;5090546;28;20032;-73
2021/06/17 09:36:35;;;;;;;11.95;9.10;;;;;;;27.49;43.54;98803.22;5090833;28;20030;-74
2021/06/17 09:39:04;;;;;;;16.50;8.52;;;;;;;27.54;43.42;98799.97;5090243;28;20020;-74
2021/06/17 09:41:37;;;;;;;;;;;;;;;27.58;43.48;98803.56;5090019;28;20034;-75
2021/06/17 09:44:04;;;;;;;15.82;8.05;;;;;;;27.63;43.58;98794.72;5090088;28;19927;-76
2021/06/17 09:46:30;;;;;;;17.00;9.30;;;;;;;27.70;43.14;98799.56;5090040;28;20035;-75
2021/06/17 09:49:03;;;;;;;12.00;8.00;;;;;;;27.76;42.97;98808.41;5090177;28;21395;-75
2021/06/17 09:51:44;;;;;;;11.80;8.02;;;;;;;27.78;42.81;98806.78;5090338;28;20556;-75
2021/06/17 09:54:23;;;;;;;14.85;10.55;;;;;;;27.86;43.05;98812.41;5091157;28;20103;-77
2021/06/17 09:56:51;;;;;;;21.42;12.90;;;;;;;27.91;42.99;98798.72;5090438;28;20098;-76
2021/06/17 09:59:36;;;;;;;50.03;35.00;;;;;;;27.98;42.90;98802.72;5092306;28;20024;-73
2021/06/17 10:02:07;;;;;;;14.13;9.93;;;;;;;28.01;42.76;98797.09;5091417;28;20058;-80
2021/06/17 10:04:33;;;;;;;15.38;9.88;;;;;;;28.06;42.74;98793.84;5090259;28;20115;-77
2021/06/17 10:06:59;;;;;;;13.80;9.52;;;;;;;28.11;42.54;98800.28;5089965;28;20150;-80
2021/06/17 10:09:25;;;;;;;16.70;10.52;;;;;;;28.18;42.48;98792.63;5105062;28;20127;-78
2021/06/17 10:11:51;;;;;;;12.98;10.10;;;;;;;28.22;42.39;98801.88;5088732;28;20036;-84
2021/06/17 10:14:18;;;;;;;12.95;9.30;;;;;;;28.27;42.20;98794.22;5088976;28;20035;-79
2021/06/17 10:16:43;;;;;;;15.55;9.32;;;;;;;28.30;41.96;98793.41;5090096;28;20729;-79
2021/06/17 10:19:10;;;;;;;14.43;8.90;;;;;;;28.38;42.12;98797.78;5088835;28;20031;-79
2021/06/17 10:21:36;;;;;;;13.35;9.70;;;;;;;28.46;42.09;98799.38;5084278;28;20399;-82
2021/06/17 10:24:10;;;;;;;15.05;10.23;;;;;;;28.53;42.05;98801.34;5071761;28;20115;-81
2021/06/17 10:26:45;;;;;;;14.15;10.00;;;;;;;28.64;42.05;98801.31;5089071;28;20768;-78
2021/06/17 10:29:35;;;;;;;14.15;9.05;;;;;;;28.73;41.72;98801.69;5089393;28;20038;-78
2021/06/17 10:32:01;;;;;;;14.27;9.75;;;;;;;28.79;41.33;98794.38;5089260;28;20098;-84
2021/06/17 10:34:27;;;;;;;13.52;9.38;;;;;;;28.82;41.28;98799.22;5088013;28;20019;-85
2021/06/17 10:37:48;;;;;;;14.80;9.95;;;;;;;28.88;41.29;98790.31;5085911;28;20502;-78
2021/06/17 10:40:13;;;;;;;14.27;9.88;;;;;;;28.94;41.03;98795.09;5058480;28;20134;-86
2021/06/17 10:42:41;;;;;;;11.63;9.02;;;;;;;29.01;41.22;98794.25;5088825;28;20162;-80
2021/06/17 10:45:10;;;;;;;15.05;9.52;;;;;;;29.02;40.75;98793.06;5089989;28;20054;-86
2021/06/17 10:47:36;;;;;;;12.38;9.15;;;;;;;29.03;40.88;98789.00;5089412;28;20024;-81
2021/06/17 10:50:04;;;;;;;12.75;9.48;;;;;;;29.08;40.29;98788.56;5071145;28;20495;-73
2021/06/17 10:52:34;;;;;;;11.13;8.73;;;;;;;29.16;40.45;98794.16;5088459;28;20047;-77
2021/06/17 10:54:59;;;;;;;14.23;9.68;;;;;;;29.23;40.56;98794.09;5089509;28;20380;-78
2021/06/17 10:57:51;;;;;;;13.40;9.07;;;;;;;29.31;40.44;98792.03;5088822;28;20016;-76
2021/06/17 11:00:29;;;;;;;13.70;9.63;;;;;;;29.37;40.23;98779.91;5088794;28;20395;-76
2021/06/17 11:03:00;;;;;;;10.63;8.43;;;;;;;29.44;40.04;98781.84;5088329;28;20050;-75
2021/06/17 11:05:29;;;;;;;10.85;8.73;;;;;;;29.49;40.11;98780.63;5071103;28;20052;-75
2021/06/17 11:08:12;;;;;;;14.07;9.20;;;;;;;29.55;39.88;98771.25;5088949;28;20388;-77
2021/06/17 11:10:45;;;;;;;14.05;9.10;;;;;;;29.59;39.66;98765.56;5087347;28;20047;-78
2021/06/17 11:13:34;;;;;;;13.80;9.27;;;;;;;29.65;39.43;98765.94;5093278;28;20031;-72
2021/06/17 11:16:01;;;;;;;11.80;9.52;;;;;;;29.73;39.29;98764.66;5074305;28;20071;-73
2021/06/17 11:18:55;;;;;;;14.10;9.27;;;;;;;29.80;38.96;98767.38;5088498;28;20024;-73
2021/06/17 11:21:21;;;;;;;16.23;8.38;;;;;;;29.86;38.96;98767.75;5088380;28;20035;-73
2021/06/17 11:23:47;;;;;;;14.90;9.95;;;;;;;29.91;39.13;98760.81;5088709;28;20032;-72
2021/06/17 11:26:52;;;;;;;13.63;9.25;;;;;;;29.97;39.16;98770.44;5088984;28;20088;-72
2021/06/17 11:29:34;;;;;;;14.38;9.32;;;;;;;30.05;38.92;98757.84;5086742;28;20032;-73